Aviation Digital Data Service (ADDS)

Output produced by METARs form (2206 UTC 23 April 2014)
found at http://aviationweather.gov/adds/metars/
 
KACK 232016Z 2320/2418 32013G22KT P6SM BKN016 OVC025 
     FM232300 32018G28KT P6SM OVC035 
     FM240800 31024G35KT P6SM BKN250